createdAt,value
2023-03-26T00:01:21.353Z,6.07
2023-03-26T00:03:54.102Z,7.00
2023-03-26T00:06:23.867Z,6.57
2023-03-26T00:08:52.021Z,4.63
2023-03-26T00:11:22.069Z,4.03
2023-03-26T00:13:49.989Z,8.07
2023-03-26T00:16:19.829Z,6.80
2023-03-26T00:18:49.056Z,6.85
2023-03-26T00:21:20.948Z,4.88
2023-03-26T00:23:49.315Z,7.93
2023-03-26T00:26:17.618Z,6.53
2023-03-26T00:28:44.889Z,5.95
2023-03-26T00:31:14.402Z,5.38
2023-03-26T00:33:42.844Z,5.32
2023-03-26T00:36:16.850Z,3.80
2023-03-26T00:38:45.193Z,4.18
2023-03-26T00:41:18.080Z,9.52
2023-03-26T00:43:46.771Z,6.60
2023-03-26T00:46:14.471Z,10.60
2023-03-26T00:48:45.753Z,6.88
2023-03-26T00:51:15.866Z,7.00
2023-03-26T00:53:48.338Z,6.93
2023-03-26T00:56:16.363Z,5.85
2023-03-26T00:58:44.655Z,4.60
2023-03-26T01:01:18.910Z,6.07
2023-03-26T01:04:01.172Z,6.65
2023-03-26T01:06:37.868Z,9.93
2023-03-26T01:09:17.272Z,6.82
2023-03-26T01:11:45.190Z,10.90
2023-03-26T01:14:17.728Z,9.55
2023-03-26T01:16:52.247Z,7.93
2023-03-26T01:19:40.555Z,8.13
2023-03-26T01:22:11.336Z,4.13
2023-03-26T01:24:39.664Z,9.07
2023-03-26T01:27:36.016Z,9.52
2023-03-26T01:30:21.445Z,7.95
2023-03-26T01:33:14.571Z,8.18
2023-03-26T01:35:45.120Z,9.77
2023-03-26T01:38:40.280Z,6.25
2023-03-26T01:41:26.418Z,10.63
2023-03-26T01:44:03.466Z,9.02
2023-03-26T01:46:37.013Z,11.75
2023-03-26T01:49:06.010Z,8.43
2023-03-26T01:51:35.802Z,9.25
2023-03-26T01:54:06.039Z,6.78
2023-03-26T01:56:36.122Z,10.13
2023-03-26T01:59:25.801Z,7.85
2023-03-26T02:02:04.891Z,7.53
2023-03-26T02:04:44.084Z,9.02
2023-03-26T02:07:28.850Z,13.50
2023-03-26T02:10:00.301Z,7.35
2023-03-26T02:12:29.334Z,6.97
2023-03-26T02:14:59.266Z,6.78
2023-03-26T02:17:30.114Z,8.30
2023-03-26T02:19:57.494Z,8.45
2023-03-26T02:22:30.106Z,9.02
2023-03-26T02:24:58.936Z,7.45
2023-03-26T02:27:26.432Z,7.25
2023-03-26T02:29:53.752Z,8.13
2023-03-26T02:32:23.538Z,14.30
2023-03-26T02:34:51.444Z,10.63
2023-03-26T02:37:19.368Z,9.05
2023-03-26T02:39:49.946Z,10.25
2023-03-26T02:42:26.978Z,8.75
2023-03-26T02:44:54.291Z,10.15
2023-03-26T02:47:41.647Z,12.90
2023-03-26T02:50:32.743Z,6.38
2023-03-26T02:53:24.132Z,12.88
2023-03-26T02:55:59.910Z,8.13
2023-03-26T02:58:31.465Z,10.13
2023-03-26T03:00:58.885Z,8.75
2023-03-26T03:03:31.558Z,10.85
2023-03-26T03:06:01.661Z,6.85
2023-03-26T03:08:34.164Z,9.10
2023-03-26T03:11:16.342Z,10.95
2023-03-26T03:13:46.496Z,10.57
2023-03-26T03:18:45.356Z,8.57
2023-03-26T03:21:12.917Z,10.45
2023-03-26T03:23:40.181Z,10.27
2023-03-26T03:26:17.348Z,10.65
2023-03-26T03:28:51.875Z,9.57
2023-03-26T03:31:19.268Z,9.27
2023-03-26T03:33:46.718Z,7.53
2023-03-26T03:36:20.270Z,10.82
2023-03-26T03:38:51.309Z,9.82
2023-03-26T03:41:21.208Z,7.95
2023-03-26T03:43:48.618Z,11.15
2023-03-26T03:46:20.961Z,11.05
2023-03-26T03:48:50.130Z,9.82
2023-03-26T03:51:25.481Z,8.65
2023-03-26T03:54:05.084Z,7.40
2023-03-26T03:56:52.677Z,15.60
2023-03-26T03:59:19.953Z,9.02
2023-03-26T04:01:48.654Z,10.48
2023-03-26T04:04:30.764Z,8.70
2023-03-26T04:07:01.200Z,10.57
2023-03-26T04:09:53.193Z,11.48
2023-03-26T04:12:22.571Z,10.45
2023-03-26T04:14:59.843Z,5.88
2023-03-26T04:17:27.577Z,9.10
2023-03-26T04:19:56.635Z,7.40
2023-03-26T04:22:34.809Z,8.75
2023-03-26T04:25:05.438Z,9.00
2023-03-26T04:27:41.824Z,7.10
2023-03-26T04:30:31.745Z,8.90
2023-03-26T04:33:06.549Z,10.80
2023-03-26T04:35:38.125Z,8.50
2023-03-26T04:38:10.087Z,10.15
2023-03-26T04:40:40.247Z,6.95
2023-03-26T04:43:18.614Z,7.15
2023-03-26T04:46:06.463Z,6.55
2023-03-26T04:48:44.465Z,10.90
2023-03-26T04:51:22.026Z,9.10
2023-03-26T04:53:59.786Z,6.82
2023-03-26T04:56:34.750Z,8.55
2023-03-26T04:59:26.137Z,6.60
2023-03-26T05:01:56.948Z,10.05
2023-03-26T05:04:26.905Z,10.70
2023-03-26T05:06:54.466Z,9.88
2023-03-26T05:09:33.627Z,8.63
2023-03-26T05:12:33.287Z,8.32
2023-03-26T05:15:05.971Z,7.80
2023-03-26T05:17:44.873Z,10.07
2023-03-26T05:20:24.597Z,5.63
2023-03-26T05:22:52.566Z,8.43
2023-03-26T05:25:26.834Z,10.20
2023-03-26T05:27:55.000Z,8.18
2023-03-26T05:30:26.433Z,9.13
2023-03-26T05:37:57.888Z,7.07
2023-03-26T05:40:26.131Z,6.15
2023-03-26T05:42:59.714Z,7.90
2023-03-26T05:45:36.358Z,9.25
2023-03-26T05:48:16.564Z,10.95
2023-03-26T05:50:43.811Z,8.27
2023-03-26T05:53:11.119Z,13.50
2023-03-26T05:55:41.129Z,10.43
2023-03-26T05:58:32.124Z,10.15
2023-03-26T06:01:26.149Z,8.73
2023-03-26T06:04:22.676Z,5.68
2023-03-26T06:07:10.274Z,9.98
2023-03-26T06:09:39.992Z,4.47
2023-03-26T06:12:08.945Z,9.98
2023-03-26T06:14:37.335Z,10.45
2023-03-26T06:17:14.434Z,8.07
2023-03-26T06:20:08.830Z,8.18
2023-03-26T06:22:40.014Z,9.40
2023-03-26T06:25:34.476Z,10.60
2023-03-26T06:28:39.956Z,7.82
2023-03-26T06:31:23.129Z,8.80
2023-03-26T06:33:55.391Z,8.80
2023-03-26T06:36:22.722Z,6.65
2023-03-26T06:38:51.311Z,10.02
2023-03-26T06:41:18.632Z,6.35
2023-03-26T06:44:15.492Z,10.77
2023-03-26T06:47:01.431Z,8.15
2023-03-26T06:50:01.227Z,6.28
2023-03-26T06:52:28.888Z,11.30
2023-03-26T06:55:26.382Z,9.55
2023-03-26T06:58:13.543Z,9.63
2023-03-26T07:01:04.513Z,9.48
2023-03-26T07:03:50.739Z,7.35
2023-03-26T07:06:36.281Z,8.10
2023-03-26T07:09:22.596Z,6.55
2023-03-26T07:12:08.468Z,8.52
2023-03-26T07:14:54.484Z,7.75
2023-03-26T07:17:54.034Z,6.82
2023-03-26T07:20:25.342Z,10.25
2023-03-26T07:22:54.308Z,9.63
2023-03-26T07:25:37.492Z,8.18
2023-03-26T07:29:04.429Z,8.38
2023-03-26T07:31:49.989Z,9.27
2023-03-26T07:34:53.467Z,9.38
2023-03-26T07:37:48.113Z,4.85
2023-03-26T07:41:03.136Z,9.93
2023-03-26T07:44:10.588Z,10.98
2023-03-26T07:47:04.945Z,7.30
2023-03-26T07:49:43.454Z,7.80
2023-03-26T07:54:59.470Z,8.30
2023-03-26T07:57:51.282Z,8.95
2023-03-26T08:00:37.721Z,11.63
2023-03-26T08:03:37.069Z,6.90
2023-03-26T08:06:07.570Z,7.43
2023-03-26T08:09:02.590Z,7.60
2023-03-26T08:11:57.778Z,6.63
2023-03-26T08:14:41.059Z,10.02
2023-03-26T08:17:14.302Z,6.65
2023-03-26T08:19:54.704Z,11.10
2023-03-26T08:22:27.282Z,9.32
2023-03-26T08:25:04.684Z,7.63
2023-03-26T08:27:55.979Z,8.52
2023-03-26T08:30:26.373Z,8.60
2023-03-26T08:33:05.307Z,6.32
2023-03-26T08:35:35.378Z,7.90
2023-03-26T08:38:02.795Z,11.20
2023-03-26T08:41:00.775Z,4.82
2023-03-26T08:44:05.429Z,11.65
2023-03-26T08:46:57.653Z,8.30
2023-03-26T08:49:33.819Z,11.48
2023-03-26T08:52:32.298Z,7.25
2023-03-26T08:55:08.160Z,7.82
2023-03-26T08:58:05.630Z,9.70
2023-03-26T09:00:55.067Z,9.38
2023-03-26T09:03:53.516Z,8.63
2023-03-26T09:06:57.521Z,11.70
2023-03-26T09:10:11.999Z,10.45
2023-03-26T09:12:49.658Z,11.55
2023-03-26T09:15:41.920Z,14.32
2023-03-26T09:21:09.265Z,8.52
2023-03-26T09:23:57.970Z,11.52
2023-03-26T09:26:38.134Z,16.67
2023-03-26T09:29:39.430Z,13.75
2023-03-26T09:32:38.402Z,11.48
2023-03-26T09:35:14.312Z,7.97
2023-03-26T09:38:00.330Z,11.82
2023-03-26T09:40:44.286Z,9.40
2023-03-26T09:43:36.722Z,8.25
2023-03-26T09:46:27.052Z,17.45
2023-03-26T09:49:11.549Z,11.68
2023-03-26T09:51:51.659Z,9.23
2023-03-26T09:54:44.386Z,10.90
2023-03-26T09:57:53.864Z,10.02
2023-03-26T10:00:39.760Z,11.55
2023-03-26T10:03:30.732Z,11.90
2023-03-26T10:06:24.891Z,13.00
2023-03-26T10:08:57.846Z,10.05
2023-03-26T10:11:57.096Z,9.15
2023-03-26T10:14:42.727Z,11.75
2023-03-26T10:17:28.525Z,11.23
2023-03-26T10:20:05.572Z,8.48
2023-03-26T10:22:37.745Z,9.38
2023-03-26T10:25:17.493Z,8.07
2023-03-26T10:28:05.058Z,10.60
2023-03-26T10:30:56.930Z,19.77
2023-03-26T10:36:30.462Z,11.35
2023-03-26T10:39:37.216Z,10.52
2023-03-26T10:42:42.069Z,10.63
2023-03-26T10:45:27.906Z,9.70
2023-03-26T10:48:09.822Z,6.55
2023-03-26T10:50:50.601Z,7.50
2023-03-26T10:53:31.367Z,6.60
2023-03-26T10:56:14.063Z,9.68
2023-03-26T10:58:49.266Z,9.50
2023-03-26T11:01:33.034Z,10.82
2023-03-26T11:04:14.884Z,8.82
2023-03-26T11:06:54.650Z,13.90
2023-03-26T11:09:58.354Z,9.30
2023-03-26T11:12:37.649Z,13.30
2023-03-26T11:15:17.320Z,6.85
2023-03-26T11:17:50.556Z,8.68
2023-03-26T11:20:36.598Z,9.30
2023-03-26T11:23:26.531Z,8.93
2023-03-26T11:26:09.171Z,9.07
2023-03-26T11:29:05.108Z,8.32
2023-03-26T11:32:10.425Z,9.05
2023-03-26T11:37:20.270Z,10.25
2023-03-26T11:39:56.423Z,10.10
2023-03-26T11:42:25.074Z,9.07
2023-03-26T11:44:59.985Z,10.40
2023-03-26T11:47:38.405Z,9.45
2023-03-26T11:50:09.939Z,6.75
2023-03-26T11:52:37.545Z,7.80
2023-03-26T11:55:05.046Z,8.93
2023-03-26T11:57:34.936Z,6.05
2023-03-26T12:00:16.576Z,5.57
2023-03-26T12:02:45.833Z,7.72
2023-03-26T12:05:26.671Z,7.90
2023-03-26T12:07:58.907Z,7.00
2023-03-26T12:10:38.337Z,5.95
2023-03-26T12:13:33.056Z,5.22
2023-03-26T12:16:18.717Z,6.13
2023-03-26T12:18:58.909Z,5.72
2023-03-26T12:21:31.869Z,4.90
2023-03-26T12:24:06.974Z,8.50
2023-03-26T12:26:42.513Z,7.60
2023-03-26T12:29:18.558Z,8.27
2023-03-26T12:31:58.240Z,11.80
2023-03-26T12:34:39.586Z,7.03
2023-03-26T12:37:27.983Z,6.93
2023-03-26T12:40:16.029Z,6.75
2023-03-26T12:44:53.798Z,5.38
2023-03-26T12:45:43.420Z,4.70
2023-03-26T12:48:15.852Z,6.13
2023-03-26T12:50:53.100Z,4.75
2023-03-26T12:53:20.460Z,6.05
2023-03-26T12:56:00.428Z,5.35
2023-03-26T12:59:16.421Z,5.28
2023-03-26T13:02:11.176Z,6.95
2023-03-26T13:05:02.416Z,6.30
2023-03-26T13:08:00.530Z,4.65
2023-03-26T13:10:37.276Z,5.38
2023-03-26T13:13:15.348Z,4.22
2023-03-26T13:15:54.031Z,4.68
2023-03-26T13:18:30.316Z,4.32
2023-03-26T13:21:19.255Z,5.85
2023-03-26T13:24:12.160Z,4.15
2023-03-26T13:27:00.391Z,3.30
2023-03-26T13:29:46.791Z,5.28
2023-03-26T13:32:49.775Z,4.40
2023-03-26T13:35:43.019Z,5.43
2023-03-26T13:38:22.519Z,6.18
2023-03-26T13:41:24.885Z,4.40
2023-03-26T13:46:46.835Z,3.75
2023-03-26T13:49:25.590Z,5.47
2023-03-26T13:52:01.108Z,5.88
2023-03-26T13:54:40.259Z,5.10
2023-03-26T13:57:33.354Z,3.10
2023-03-26T14:00:12.802Z,4.22
2023-03-26T14:02:45.796Z,5.55
2023-03-26T14:05:33.978Z,5.03
2023-03-26T14:08:15.954Z,4.07
2023-03-26T14:13:24.946Z,5.13
2023-03-26T14:16:04.204Z,5.05
2023-03-26T14:18:40.019Z,4.25
2023-03-26T14:21:28.925Z,6.05
2023-03-26T14:24:08.768Z,3.30
2023-03-26T14:27:03.485Z,3.85
2023-03-26T14:30:01.569Z,3.60
2023-03-26T14:33:06.083Z,3.40
2023-03-26T14:36:07.831Z,4.03
2023-03-26T14:39:18.830Z,4.07
2023-03-26T14:41:56.941Z,3.20
2023-03-26T14:44:53.218Z,4.07
2023-03-26T14:47:24.822Z,3.50
2023-03-26T14:49:53.628Z,2.97
2023-03-26T14:52:39.585Z,4.07
2023-03-26T14:55:29.867Z,3.72
2023-03-26T14:58:18.422Z,4.18
2023-03-26T15:00:48.531Z,6.03
2023-03-26T15:03:52.755Z,4.47
2023-03-26T15:06:50.548Z,4.50
2023-03-26T15:09:36.365Z,5.03
2023-03-26T15:12:46.187Z,3.58
2023-03-26T15:15:35.616Z,3.97
2023-03-26T15:18:23.485Z,4.50
2023-03-26T15:21:11.941Z,4.00
2023-03-26T15:24:10.971Z,4.60
2023-03-26T15:26:41.840Z,4.18
2023-03-26T15:29:28.091Z,4.10
2023-03-26T15:32:40.750Z,5.57
2023-03-26T15:35:14.973Z,4.00
2023-03-26T15:37:54.233Z,4.15
2023-03-26T15:40:59.701Z,4.72
2023-03-26T15:44:22.237Z,4.68
2023-03-26T15:46:36.428Z,4.65
2023-03-26T15:49:24.683Z,5.63
2023-03-26T15:52:13.129Z,3.80
2023-03-26T15:55:05.919Z,4.15
2023-03-26T15:58:03.246Z,4.32
2023-03-26T16:00:38.380Z,4.20
2023-03-26T16:03:11.411Z,3.88
2023-03-26T16:06:20.115Z,3.72
2023-03-26T16:09:24.522Z,3.70
2023-03-26T16:11:58.230Z,3.53
2023-03-26T16:14:34.764Z,5.07
2023-03-26T16:17:11.796Z,4.47
2023-03-26T16:19:52.187Z,5.47
2023-03-26T16:22:42.871Z,4.05
2023-03-26T16:25:32.964Z,4.80
2023-03-26T16:28:21.425Z,9.07
2023-03-26T16:31:36.918Z,4.53
2023-03-26T16:34:08.022Z,3.67
2023-03-26T16:36:36.999Z,5.60
2023-03-26T16:39:04.858Z,5.28
2023-03-26T16:41:51.434Z,3.88
2023-03-26T16:44:21.502Z,4.38
2023-03-26T16:47:32.485Z,4.78
2023-03-26T16:50:26.057Z,4.57
2023-03-26T16:53:24.260Z,4.82
2023-03-26T16:56:06.363Z,7.15
2023-03-26T16:58:38.333Z,6.20
2023-03-26T17:01:35.496Z,5.15
2023-03-26T17:04:23.455Z,5.30
2023-03-26T17:06:57.781Z,5.55
2023-03-26T17:10:05.932Z,4.10
2023-03-26T17:12:59.632Z,4.43
2023-03-26T17:15:52.642Z,4.85
2023-03-26T17:18:47.904Z,7.00
2023-03-26T17:21:18.238Z,6.93
2023-03-26T17:24:07.392Z,4.80
2023-03-26T17:26:53.166Z,5.07
2023-03-26T17:29:30.024Z,7.03
2023-03-26T17:32:03.584Z,8.30
2023-03-26T17:34:52.122Z,5.93
2023-03-26T17:37:19.784Z,9.60
2023-03-26T17:39:47.015Z,5.47
2023-03-26T17:42:25.792Z,6.88
2023-03-26T17:45:02.238Z,5.72
2023-03-26T17:47:39.623Z,4.88
2023-03-26T17:50:42.155Z,8.32
2023-03-26T17:53:32.661Z,6.55
2023-03-26T17:56:06.673Z,6.82
2023-03-26T17:58:50.824Z,7.60
2023-03-26T18:01:32.358Z,9.52
2023-03-26T18:04:03.175Z,7.13
2023-03-26T18:06:51.850Z,6.13
2023-03-26T18:09:39.328Z,6.82
2023-03-26T18:12:28.219Z,4.60
2023-03-26T18:14:59.008Z,8.40
2023-03-26T18:17:31.241Z,6.97
2023-03-26T18:20:10.057Z,7.03
2023-03-26T18:22:37.341Z,4.82
2023-03-26T18:25:05.471Z,5.18
2023-03-26T18:27:41.015Z,4.90
2023-03-26T18:30:21.319Z,3.33
2023-03-26T18:33:00.197Z,3.67
2023-03-26T18:35:48.905Z,3.15
2023-03-26T18:38:36.163Z,4.45
2023-03-26T18:41:15.370Z,5.72
2023-03-26T18:43:44.391Z,2.55
2023-03-26T18:46:14.757Z,3.05
2023-03-26T18:48:42.754Z,3.03
2023-03-26T18:51:10.807Z,3.15
2023-03-26T18:54:00.003Z,2.70
2023-03-26T18:56:33.866Z,2.92
2023-03-26T18:59:04.037Z,3.08
2023-03-26T19:01:34.819Z,2.83
2023-03-26T19:04:06.851Z,1.95
2023-03-26T19:06:38.550Z,4.97
2023-03-26T19:09:19.510Z,2.72
2023-03-26T19:11:57.282Z,2.63
2023-03-26T19:14:26.281Z,4.40
2023-03-26T19:17:01.115Z,2.08
2023-03-26T19:19:37.860Z,5.10
2023-03-26T19:22:07.634Z,1.83
2023-03-26T19:24:35.724Z,3.45
2023-03-26T19:27:04.396Z,2.33
2023-03-26T19:29:34.031Z,3.53
2023-03-26T19:32:06.572Z,1.98
2023-03-26T19:34:40.515Z,1.67
2023-03-26T19:37:26.536Z,3.35
2023-03-26T19:40:01.355Z,3.15
2023-03-26T19:42:42.983Z,1.40
2023-03-26T19:45:20.801Z,4.05
2023-03-26T19:48:00.116Z,2.80
2023-03-26T19:50:34.446Z,2.13
2023-03-26T19:53:16.808Z,3.38
2023-03-26T19:56:18.868Z,2.80
2023-03-26T19:58:46.285Z,2.53
2023-03-26T20:01:19.162Z,3.50
2023-03-26T20:03:49.203Z,2.92
2023-03-26T20:06:21.000Z,1.98
2023-03-26T20:08:52.289Z,2.90
2023-03-26T20:11:28.012Z,2.58
2023-03-26T20:13:55.673Z,2.47
2023-03-26T20:16:32.024Z,3.20
2023-03-26T20:19:04.276Z,3.05
2023-03-26T20:21:34.828Z,2.85
2023-03-26T20:24:03.058Z,3.85
2023-03-26T20:26:30.290Z,3.28
2023-03-26T20:28:57.932Z,4.70
2023-03-26T20:31:27.135Z,2.83
2023-03-26T20:33:54.958Z,3.53
2023-03-26T20:36:33.705Z,2.80
2023-03-26T20:39:07.995Z,5.50
2023-03-26T20:41:39.377Z,4.35
2023-03-26T20:44:18.405Z,4.50
2023-03-26T20:46:48.394Z,3.45
2023-03-26T20:49:15.969Z,3.65
2023-03-26T20:51:45.385Z,4.40
2023-03-26T20:54:23.767Z,3.00
2023-03-26T20:56:53.635Z,6.43
2023-03-26T20:59:28.986Z,3.05
2023-03-26T21:01:58.209Z,3.15
2023-03-26T21:04:26.830Z,3.53
2023-03-26T21:07:00.284Z,3.33
2023-03-26T21:09:35.184Z,4.18
2023-03-26T21:12:07.113Z,4.75
2023-03-26T21:14:44.184Z,4.32
2023-03-26T21:17:22.506Z,3.13
2023-03-26T21:19:50.421Z,3.85
2023-03-26T21:22:43.789Z,3.58
2023-03-26T21:25:28.821Z,2.88
2023-03-26T21:28:29.177Z,4.15
2023-03-26T21:31:05.280Z,4.82
2023-03-26T21:33:32.760Z,3.17
2023-03-26T21:36:01.909Z,3.72
2023-03-26T21:38:32.445Z,3.00
2023-03-26T21:41:02.649Z,5.38
2023-03-26T21:43:30.224Z,5.40
2023-03-26T21:45:58.666Z,4.15
2023-03-26T21:48:29.194Z,4.55
2023-03-26T21:51:02.477Z,4.28
2023-03-26T21:53:30.305Z,4.35
2023-03-26T21:56:01.945Z,3.75
2023-03-26T21:58:51.670Z,6.75
2023-03-26T22:01:45.644Z,2.70
2023-03-26T22:04:51.290Z,6.22
2023-03-26T22:07:25.946Z,3.75
2023-03-26T22:09:53.665Z,4.45
2023-03-26T22:12:20.898Z,3.70
2023-03-26T22:14:48.194Z,3.60
2023-03-26T22:17:15.486Z,5.75
2023-03-26T22:19:42.861Z,2.70
2023-03-26T22:22:10.721Z,4.35
2023-03-26T22:24:38.532Z,3.20
2023-03-26T22:27:06.320Z,3.30
2023-03-26T22:29:33.788Z,3.35
2023-03-26T22:32:01.340Z,4.15
2023-03-26T22:34:28.610Z,2.90
2023-03-26T22:36:56.276Z,5.75
2023-03-26T22:39:23.628Z,4.07
2023-03-26T22:41:50.976Z,3.97
2023-03-26T22:44:20.169Z,3.13
2023-03-26T22:46:51.456Z,5.00
2023-03-26T22:49:19.303Z,2.97
2023-03-26T22:51:46.933Z,4.63
2023-03-26T22:54:14.684Z,2.75
2023-03-26T22:56:41.974Z,5.18
2023-03-26T22:59:09.229Z,4.43
2023-03-26T23:01:36.714Z,3.45
2023-03-26T23:04:04.276Z,4.57
2023-03-26T23:06:31.781Z,3.13
2023-03-26T23:08:59.016Z,4.65
2023-03-26T23:11:26.828Z,5.20
2023-03-26T23:13:54.130Z,3.58
2023-03-26T23:16:21.773Z,4.82
2023-03-26T23:18:49.216Z,3.17
2023-03-26T23:21:21.703Z,4.18
2023-03-26T23:23:50.476Z,4.50
2023-03-26T23:26:17.972Z,4.95
2023-03-26T23:28:45.291Z,4.78
2023-03-26T23:31:13.329Z,4.65
2023-03-26T23:33:46.409Z,3.90
2023-03-26T23:36:19.331Z,2.92
2023-03-26T23:38:48.283Z,3.53
2023-03-26T23:41:21.781Z,4.57
2023-03-26T23:43:56.945Z,3.35
2023-03-26T23:46:30.994Z,7.55
2023-03-26T23:49:04.673Z,3.20
2023-03-26T23:51:32.826Z,3.63
2023-03-26T23:54:00.620Z,4.50
2023-03-26T23:56:29.833Z,3.55
2023-03-26T23:58:57.435Z,3.45
